Terminal Aerodrome Forecast
Issued by NWS Sterling, VA

Home | Current Version | Previous Version | Text Only | Print | Product List | Glossary On
Versions: 1 2 3 4 5 6 7 8 9 10 11 12 13 14 15 16 17 18 19 20 21 22 23
000
FTUS41 KLWX 192039 AAA
TAFIAD
TAF AMD
KIAD 192039Z 1921/2024 31013G20KT P6SM SCT120
     FM200000 30009KT P6SM FEW250
     FM200500 31005KT P6SM FEW250
     FM202000 01007KT P6SM FEW200=

USA.gov is the U.S. government's official web portal to all federal, state and local government web resources and services.